Time;durP1;ratioP1;P1;durP2;ratioP2;P2;SDS_P1;SDS_P2;PMS_P1;PMS_P2;Temp;Humidity;BMP_temperature;BMP_pressure;BME280_temperature;BME280_humidity;BME280_pressure;Samples;Min_cycle;Max_cycle;Signal;HPM_P1;HPM_P2
2022/08/26 00:01:01;;;;;;;22.17;10.63;;;;;;;24.90;66.33;101242.06;4926546;28;124419;-80
2022/08/26 00:03:26;;;;;;;18.63;10.17;;;;;;;24.88;66.11;101243.91;4910953;28;126413;-81
2022/08/26 00:05:52;;;;;;;19.37;10.27;;;;;;;24.79;66.63;101236.63;4908575;28;122528;-80
2022/08/26 00:08:20;;;;;;;19.92;10.98;;;;;;;24.89;66.58;101248.97;4930939;28;125127;-80
2022/08/26 00:10:45;;;;;;;23.40;11.55;;;;;;;24.86;66.20;101238.06;4940136;28;123056;-80
2022/08/26 00:13:11;;;;;;;18.55;10.85;;;;;;;24.89;66.17;101251.03;4912644;28;124731;-79
2022/08/26 00:15:38;;;;;;;19.75;10.20;;;;;;;24.89;66.17;101245.41;4942017;28;126593;-79
2022/08/26 00:18:04;;;;;;;25.40;11.03;;;;;;;24.87;66.79;101240.34;4910023;28;123298;-79
2022/08/26 00:20:32;;;;;;;24.67;11.10;;;;;;;24.90;66.04;101242.06;4946120;28;122531;-79
2022/08/26 00:22:58;;;;;;;21.13;10.63;;;;;;;24.86;66.65;101230.41;4928004;28;123659;-79
2022/08/26 00:25:25;;;;;;;17.60;10.60;;;;;;;24.90;66.36;101235.69;4944709;28;122118;-79
2022/08/26 00:27:50;;;;;;;19.92;11.20;;;;;;;24.90;66.33;101236.44;4940621;28;122026;-79
2022/08/26 00:30:20;;;;;;;20.77;11.75;;;;;;;24.84;66.37;101221.75;4916612;28;124328;-78
2022/08/26 00:32:45;;;;;;;21.80;11.00;;;;;;;24.85;66.62;101219.72;4927411;28;124439;-79
2022/08/26 00:35:12;;;;;;;21.57;10.80;;;;;;;24.84;66.41;101224.53;4944452;28;122368;-78
2022/08/26 00:37:39;;;;;;;21.58;12.13;;;;;;;24.80;66.63;101210.84;4945922;28;122588;-79
2022/08/26 00:40:09;;;;;;;19.42;10.82;;;;;;;24.86;66.42;101221.22;4928562;28;125011;-79
2022/08/26 00:42:34;;;;;;;22.75;10.80;;;;;;;24.87;66.85;101228.34;4911885;28;123825;-79
2022/08/26 00:45:00;;;;;;;20.73;10.90;;;;;;;24.87;66.47;101222.75;4928499;28;121965;-79
2022/08/26 00:47:34;;;;;;;23.23;11.48;;;;;;;24.86;66.76;101224.78;4922914;28;124144;-80
2022/08/26 00:50:02;;;;;;;17.70;10.43;;;;;;;24.87;66.53;101228.34;4943095;28;123680;-80
2022/08/26 00:52:28;;;;;;;20.85;11.13;;;;;;;24.80;66.61;101215.69;4948685;28;125550;-80
2022/08/26 00:55:00;;;;;;;20.20;11.35;;;;;;;24.80;66.77;101219.25;4941924;28;122302;-80
2022/08/26 00:57:26;;;;;;;19.73;10.98;;;;;;;24.81;66.66;101220.00;4958373;28;122233;-80
2022/08/26 00:59:56;;;;;;;21.73;11.73;;;;;;;24.80;66.60;101213.66;4905388;28;124281;-80
2022/08/26 01:02:22;;;;;;;21.67;11.73;;;;;;;24.81;66.91;101217.22;4939779;28;122724;-80
2022/08/26 01:04:54;;;;;;;19.93;11.13;;;;;;;24.85;66.37;101226.09;4922021;28;122723;-80
2022/08/26 01:07:20;;;;;;;20.23;11.25;;;;;;;24.79;66.69;101211.38;4927641;28;124252;-80
2022/08/26 01:09:46;;;;;;;22.45;11.85;;;;;;;24.83;66.73;101231.44;4927982;28;125785;-80
2022/08/26 01:12:13;;;;;;;19.17;11.38;;;;;;;24.85;66.76;101228.13;4947547;28;122954;-81
2022/08/26 01:14:41;;;;;;;23.02;11.80;;;;;;;24.86;67.10;101236.03;4927134;28;126264;-80
2022/08/26 01:17:08;;;;;;;23.90;11.90;;;;;;;24.89;67.18;101229.31;4928170;28;122447;-81
2022/08/26 01:19:43;;;;;;;22.45;12.35;;;;;;;24.90;66.79;101230.84;4943193;28;122396;-81
2022/08/26 01:22:16;;;;;;;22.38;11.35;;;;;;;24.91;66.91;101232.34;4926952;28;123914;-82
2022/08/26 01:24:42;;;;;;;23.30;11.38;;;;;;;24.88;66.61;101227.81;4944230;28;122628;-81
2022/08/26 01:27:10;;;;;;;22.43;11.27;;;;;;;24.90;66.61;101216.81;4928178;28;122816;-82
2022/08/26 01:29:40;;;;;;;20.38;11.23;;;;;;;24.95;66.26;101232.03;4926227;28;123025;-82
2022/08/26 01:32:09;;;;;;;22.20;12.20;;;;;;;24.94;66.54;101236.88;4927563;28;122442;-82
2022/08/26 01:34:37;;;;;;;22.87;12.77;;;;;;;24.91;66.57;101232.34;4946543;28;122285;-81
2022/08/26 01:37:32;;;;;;;22.10;11.95;;;;;;;24.90;66.62;101225.22;4926687;28;123004;-80
2022/08/26 01:39:57;;;;;;;21.55;12.02;;;;;;;24.84;66.58;101218.19;4918986;28;123429;-80
2022/08/26 01:42:26;;;;;;;22.65;11.60;;;;;;;24.87;66.61;101226.31;4945378;28;122454;-80
2022/08/26 01:44:58;;;;;;;20.83;11.70;;;;;;;24.88;66.95;101227.81;4943428;28;122984;-81
2022/08/26 01:47:28;;;;;;;24.25;12.32;;;;;;;24.86;66.68;101215.63;4942503;28;122758;-80
2022/08/26 01:49:55;;;;;;;20.80;13.55;;;;;;;24.85;66.55;101222.53;4944730;28;122485;-80
2022/08/26 01:52:25;;;;;;;21.27;12.67;;;;;;;24.84;67.16;101221.75;4927318;28;122073;-79
2022/08/26 01:54:52;;;;;;;25.63;12.90;;;;;;;24.83;66.83;101219.47;4942888;28;123075;-80
2022/08/26 01:57:20;;;;;;;22.30;12.27;;;;;;;24.82;66.71;101218.72;4944580;28;122534;-79
2022/08/26 01:59:51;;;;;;;22.88;12.15;;;;;;;24.85;66.58;101217.66;4943779;28;122329;-79
2022/08/26 02:02:17;;;;;;;22.67;12.20;;;;;;;24.86;66.87;101222.00;4926279;28;123858;-79
2022/08/26 02:04:48;;;;;;;21.55;12.70;;;;;;;24.85;66.94;101220.47;4942837;28;122037;-79
2022/08/26 02:07:16;;;;;;;26.87;12.87;;;;;;;24.85;66.99;101219.72;4944621;28;122241;-79
2022/08/26 02:09:42;;;;;;;24.92;12.55;;;;;;;24.83;67.03;101213.88;4941369;28;122897;-79
2022/08/26 02:12:10;;;;;;;25.87;12.70;;;;;;;24.79;66.85;101208.56;4943017;28;122573;-79
2022/08/26 02:14:48;;;;;;;23.17;13.45;;;;;;;24.76;66.91;101201.25;4926723;28;122478;-79
2022/08/26 02:17:16;;;;;;;25.93;13.13;;;;;;;24.79;66.95;101212.13;4943121;28;122757;-79
2022/08/26 02:19:46;;;;;;;22.88;13.02;;;;;;;24.80;67.18;101210.84;4933569;28;122950;-79
2022/08/26 02:22:16;;;;;;;24.92;13.52;;;;;;;24.77;67.00;101206.31;4942753;28;122789;-79
2022/08/26 02:24:58;;;;;;;21.90;12.80;;;;;;;24.75;67.17;101211.69;4943670;28;123006;-80
2022/08/26 02:27:30;;;;;;;24.13;13.73;;;;;;;24.73;67.09;101207.94;4934936;28;121934;-80
2022/08/26 02:29:59;;;;;;;23.30;13.68;;;;;;;24.74;67.23;101201.03;4931428;28;123669;-81
2022/08/26 02:32:25;;;;;;;22.65;13.10;;;;;;;24.68;66.86;101198.31;4930653;28;122226;-80
2022/08/26 02:34:53;;;;;;;24.38;13.88;;;;;;;24.73;67.15;101207.94;4926895;28;122350;-80
2022/08/26 02:37:19;;;;;;;24.80;13.55;;;;;;;24.71;66.93;101207.72;4947125;28;123039;-80
2022/08/26 02:39:44;;;;;;;21.77;13.52;;;;;;;24.66;66.92;101191.75;4924746;28;122712;-80
2022/08/26 02:42:10;;;;;;;27.75;14.60;;;;;;;24.71;67.47;101202.84;4934128;28;122569;-80
2022/08/26 02:44:38;;;;;;;22.38;13.30;;;;;;;24.71;66.88;101200.06;4909548;28;122355;-80
2022/08/26 02:47:08;;;;;;;21.73;12.88;;;;;;;24.66;66.99;101191.75;4932200;28;122857;-80
2022/08/26 02:49:36;;;;;;;22.58;12.95;;;;;;;24.73;67.39;101189.03;4928379;28;122980;-80
2022/08/26 02:52:02;;;;;;;21.08;13.85;;;;;;;24.73;67.05;101200.25;4933337;28;122303;-80
2022/08/26 02:54:28;;;;;;;24.88;13.90;;;;;;;24.71;66.66;101196.50;4932931;28;124013;-80
2022/08/26 02:56:54;;;;;;;24.20;13.20;;;;;;;24.68;67.19;101189.16;4935675;28;122841;-80
2022/08/26 02:59:20;;;;;;;23.33;13.90;;;;;;;24.62;67.30;101189.25;4929605;28;122638;-80
2022/08/26 03:01:48;;;;;;;26.03;14.47;;;;;;;24.71;66.84;101196.50;4930633;28;122374;-80
2022/08/26 03:04:13;;;;;;;23.40;14.10;;;;;;;24.67;66.98;101187.66;4935177;28;122463;-80
2022/08/26 03:06:40;;;;;;;27.73;14.20;;;;;;;24.64;67.22;101180.31;4933995;28;124589;-81
2022/08/26 03:09:06;;;;;;;24.25;13.82;;;;;;;24.65;66.89;101187.44;4935004;28;123181;-79
2022/08/26 03:11:32;;;;;;;24.45;14.52;;;;;;;24.69;66.93;101193.47;4939692;28;122708;-80
2022/08/26 03:13:59;;;;;;;23.83;14.23;;;;;;;24.67;67.17;101191.19;4929617;28;122638;-79
2022/08/26 03:16:25;;;;;;;20.70;13.60;;;;;;;24.68;67.66;101192.72;4932493;28;123326;-79
2022/08/26 03:18:51;;;;;;;24.55;14.30;;;;;;;24.63;67.13;101173.19;4942042;28;122641;-80
2022/08/26 03:21:17;;;;;;;24.38;14.60;;;;;;;24.66;67.46;101178.47;4950246;28;122301;-79
2022/08/26 03:23:43;;;;;;;25.35;15.40;;;;;;;24.67;67.71;101177.19;4938579;28;122389;-80
2022/08/26 03:26:12;;;;;;;23.27;14.30;;;;;;;24.61;67.18;101173.72;4949994;28;122429;-80
2022/08/26 03:30:38;;;;;;;27.52;15.38;;;;;;;24.68;67.25;101175.13;4938029;28;122953;-80
2022/08/26 03:31:29;;;;;;;23.60;13.82;;;;;;;24.68;67.41;101172.31;4914209;28;122330;-80
2022/08/26 03:33:59;;;;;;;24.17;14.90;;;;;;;24.71;67.56;101174.06;4927649;28;122918;-79
2022/08/26 03:36:24;;;;;;;24.57;15.17;;;;;;;24.71;67.48;101176.84;4906416;28;125169;-80
2022/08/26 03:38:50;;;;;;;27.13;15.63;;;;;;;24.64;67.27;101174.69;4917820;28;122085;-79
2022/08/26 03:41:16;;;;;;;30.43;15.30;;;;;;;24.65;66.63;101165.00;4931407;28;124158;-79
2022/08/26 03:43:42;;;;;;;24.55;14.52;;;;;;;24.68;66.73;101172.31;4929077;28;123987;-79
2022/08/26 03:46:11;;;;;;;24.33;16.05;;;;;;;24.67;67.03;101174.38;4954997;28;122114;-79
2022/08/26 03:48:37;;;;;;;26.38;16.23;;;;;;;24.64;67.24;101169.84;4936581;28;123118;-79
2022/08/26 03:51:10;;;;;;;35.22;19.10;;;;;;;24.62;67.16;101169.63;4911106;28;122020;-79
2022/08/26 03:53:36;;;;;;;30.10;15.97;;;;;;;24.56;67.67;101163.34;4907769;28;122947;-79
2022/08/26 03:56:02;;;;;;;31.03;15.87;;;;;;;24.60;67.22;101166.56;4918538;28;125236;-79
2022/08/26 03:58:28;;;;;;;27.67;15.83;;;;;;;24.59;67.50;101167.13;4930177;28;122407;-79
2022/08/26 04:00:53;;;;;;;34.50;17.00;;;;;;;24.60;67.29;101160.97;4926790;28;122646;-79
2022/08/26 04:03:56;;;;;;;34.92;16.30;;;;;;;24.60;67.05;101155.38;4932769;28;122811;-79
2022/08/26 04:06:05;;;;;;;41.92;18.55;;;;;;;24.60;67.26;101163.00;4946666;28;122309;-79
2022/08/26 04:08:31;;;;;;;36.40;17.33;;;;;;;24.53;67.31;101156.00;4941213;28;122418;-79
2022/08/26 04:10:56;;;;;;;33.42;17.10;;;;;;;24.54;67.03;101159.56;4947719;28;122668;-79
2022/08/26 04:13:22;;;;;;;38.78;18.50;;;;;;;24.58;67.55;101169.16;4933823;28;122509;-79
2022/08/26 04:15:48;;;;;;;40.87;18.73;;;;;;;24.56;67.00;101156.97;4940803;28;123675;-79
2022/08/26 04:18:15;;;;;;;37.30;18.40;;;;;;;24.48;67.36;101152.00;4944924;28;122509;-79
2022/08/26 04:20:43;;;;;;;35.35;17.80;;;;;;;24.55;67.27;101159.03;4933659;28;123414;-80
2022/08/26 04:23:08;;;;;;;37.20;17.13;;;;;;;24.54;67.19;101160.31;4942232;28;122597;-79
2022/08/26 04:25:34;;;;;;;37.35;17.27;;;;;;;24.55;67.41;101150.63;4924452;28;122575;-79
2022/08/26 04:28:01;;;;;;;31.87;17.43;;;;;;;24.54;67.39;101148.34;4929040;28;122766;-80
2022/08/26 04:30:27;;;;;;;37.35;18.35;;;;;;;24.53;67.49;101149.63;4936408;28;122772;-80
2022/08/26 04:32:52;;;;;;;35.33;18.55;;;;;;;24.55;67.47;101161.06;4913105;28;123852;-79
2022/08/26 04:35:18;;;;;;;35.97;18.30;;;;;;;24.51;66.90;101160.66;4926136;28;122316;-79
2022/08/26 04:37:43;;;;;;;38.75;19.27;;;;;;;24.53;67.18;101150.41;4924057;28;122816;-79
2022/08/26 04:40:09;;;;;;;40.00;19.23;;;;;;;24.56;67.53;101154.16;4913031;28;124245;-79
2022/08/26 04:42:35;;;;;;;38.27;19.70;;;;;;;24.52;67.50;101146.09;4929358;28;125460;-79
2022/08/26 04:45:02;;;;;;;39.93;19.90;;;;;;;24.56;67.34;101145.75;4928334;28;122365;-79
2022/08/26 04:47:29;;;;;;;37.53;19.30;;;;;;;24.60;67.14;101154.59;4930658;28;125115;-79
2022/08/26 04:49:56;;;;;;;39.67;19.87;;;;;;;24.61;67.21;101151.28;4915351;28;122529;-79
2022/08/26 04:52:22;;;;;;;42.42;20.05;;;;;;;24.62;67.37;101150.00;4935473;28;122328;-79
2022/08/26 04:54:48;;;;;;;37.95;19.42;;;;;;;24.65;67.74;101153.78;4906410;28;125752;-80
2022/08/26 04:57:14;;;;;;;38.85;19.90;;;;;;;24.67;67.30;101154.00;4934128;28;123499;-79
2022/08/26 04:59:39;;;;;;;32.63;19.50;;;;;;;24.63;67.57;101148.69;4920091;28;124534;-80
2022/08/26 05:02:05;;;;;;;34.85;20.15;;;;;;;24.63;67.08;101147.94;4930175;28;125207;-80
2022/08/26 05:04:31;;;;;;;34.55;19.65;;;;;;;24.68;67.25;101149.88;4911287;28;122296;-80
2022/08/26 05:06:57;;;;;;;32.33;18.97;;;;;;;24.69;67.31;101148.59;4926451;28;124671;-79
2022/08/26 05:09:23;;;;;;;38.77;20.50;;;;;;;24.71;67.66;101148.81;4909841;28;123514;-79
2022/08/26 05:11:49;;;;;;;35.38;20.45;;;;;;;24.73;67.45;101146.97;4926118;28;122160;-80
2022/08/26 05:14:21;;;;;;;33.10;20.15;;;;;;;24.73;67.93;101141.34;4928745;28;122906;-80
2022/08/26 05:16:47;;;;;;;33.92;19.48;;;;;;;24.78;67.39;101146.09;4913918;28;122364;-80
2022/08/26 05:19:13;;;;;;;35.28;20.40;;;;;;;24.88;67.58;101154.09;4912045;28;123047;-80
2022/08/26 05:21:38;;;;;;;32.70;19.88;;;;;;;24.83;67.17;101132.50;4931062;28;125833;-79
2022/08/26 05:24:04;;;;;;;37.20;21.20;;;;;;;24.90;66.97;101143.09;4942911;28;122735;-80
2022/08/26 05:26:34;;;;;;;37.67;21.38;;;;;;;24.90;67.23;101138.25;4932039;28;125613;-80
2022/08/26 05:29:00;;;;;;;35.27;22.37;;;;;;;24.87;67.78;101136.53;4919703;28;123953;-80
2022/08/26 05:31:30;;;;;;;38.17;22.30;;;;;;;24.89;67.41;101138.78;4942513;28;123109;-80
2022/08/26 05:33:56;;;;;;;35.20;21.03;;;;;;;24.92;67.67;101144.06;4932672;28;123522;-80
2022/08/26 05:36:25;;;;;;;36.13;21.98;;;;;;;24.98;67.59;101147.50;4931174;28;122165;-80
2022/08/26 05:38:51;;;;;;;33.83;21.93;;;;;;;25.01;67.60;101148.50;4909860;28;124448;-79
2022/08/26 05:41:20;;;;;;;33.73;20.33;;;;;;;25.07;68.00;101149.13;4915584;28;125991;-80
2022/08/26 05:43:46;;;;;;;34.83;21.50;;;;;;;25.12;67.92;101148.28;4907156;28;122470;-80
2022/08/26 05:46:12;;;;;;;34.58;22.05;;;;;;;25.13;67.77;101146.25;4923777;28;124445;-81
2022/08/26 05:48:40;;;;;;;37.33;22.52;;;;;;;25.21;67.31;101153.44;4928046;28;125157;-80
2022/08/26 05:51:08;;;;;;;36.03;22.10;;;;;;;25.26;67.36;101165.84;4935967;28;122431;-81
2022/08/26 05:53:35;;;;;;;32.75;20.98;;;;;;;25.32;67.68;101167.28;4907781;28;124303;-80
2022/08/26 05:56:01;;;;;;;31.67;20.85;;;;;;;25.32;67.37;101147.63;4934653;28;125228;-80
2022/08/26 05:58:27;;;;;;;32.38;21.40;;;;;;;25.43;66.87;101159.91;4925659;28;123249;-80
2022/08/26 06:01:06;;;;;;;33.20;21.33;;;;;;;25.48;66.99;101156.97;4923147;28;124383;-80
2022/08/26 06:03:34;;;;;;;35.03;21.17;;;;;;;25.51;66.87;101155.88;4918997;28;123076;-80
2022/08/26 06:06:09;;;;;;;34.80;20.35;;;;;;;25.45;66.95;101149.63;4913671;28;124455;-80
2022/08/26 06:08:36;;;;;;;29.97;20.10;;;;;;;25.57;66.59;101152.97;4917774;28;124527;-80
2022/08/26 06:11:05;;;;;;;28.98;21.15;;;;;;;25.60;66.84;101158.25;4915710;28;122573;-80
2022/08/26 06:13:32;;;;;;;32.70;20.73;;;;;;;25.61;67.09;101156.94;4910147;28;122748;-80
2022/08/26 06:16:02;;;;;;;32.33;20.70;;;;;;;25.59;66.59;101141.94;4921027;28;123432;-81
2022/08/26 06:18:33;;;;;;;29.93;19.67;;;;;;;25.68;66.83;101149.91;4935572;28;122151;-80
2022/08/26 06:21:09;;;;;;;30.23;19.70;;;;;;;25.73;66.85;101151.09;4938929;28;125395;-80
2022/08/26 06:26:19;;;;;;;29.30;20.23;;;;;;;25.77;66.92;101140.25;4930311;28;123063;-81
2022/08/26 06:28:45;;;;;;;30.80;20.10;;;;;;;25.86;66.64;101145.44;4932616;28;122546;-80
2022/08/26 06:31:11;;;;;;;30.63;19.20;;;;;;;25.92;66.37;101157.28;4934641;28;123302;-80
2022/08/26 06:33:36;;;;;;;30.73;20.17;;;;;;;25.97;66.14;101162.00;4918972;28;124614;-80
2022/08/26 06:36:02;;;;;;;32.38;19.20;;;;;;;26.01;66.29;101168.03;4929258;28;125340;-80
2022/08/26 06:38:28;;;;;;;30.20;19.63;;;;;;;26.01;65.89;101162.41;4940635;28;122882;-80
2022/08/26 06:40:54;;;;;;;29.92;19.42;;;;;;;26.00;65.97;101150.41;4945267;28;123039;-80
2022/08/26 06:43:23;;;;;;;33.35;20.17;;;;;;;26.10;65.51;101161.19;4924239;28;122979;-81
2022/08/26 06:45:49;;;;;;;33.88;20.65;;;;;;;26.11;65.47;101160.66;4945947;28;124983;-80
2022/08/26 06:48:18;;;;;;;29.27;18.27;;;;;;;26.10;65.76;101153.53;4933757;28;125306;-81
2022/08/26 06:50:44;;;;;;;28.38;19.92;;;;;;;26.14;65.45;101158.81;4934552;28;122538;-81
2022/08/26 06:53:11;;;;;;;27.35;18.73;;;;;;;26.18;65.81;101157.16;4939596;28;124533;-80
2022/08/26 06:55:42;;;;;;;29.13;19.43;;;;;;;26.22;65.84;101157.56;4927159;28;125975;-80
2022/08/26 06:58:08;;;;;;;30.90;19.37;;;;;;;26.22;65.62;101154.00;4923476;28;122470;-81
2022/08/26 07:00:39;;;;;;;30.65;19.55;;;;;;;26.24;65.40;101148.56;4945144;28;122316;-80
2022/08/26 07:03:06;;;;;;;31.42;19.48;;;;;;;26.33;65.72;101150.16;4917184;28;125215;-80
2022/08/26 07:05:33;;;;;;;28.55;19.08;;;;;;;26.36;65.50;101149.09;4927920;28;124985;-81
2022/08/26 07:07:59;;;;;;;31.58;19.15;;;;;;;26.44;64.78;101155.50;4925997;28;123180;-81
2022/08/26 07:10:25;;;;;;;27.70;17.20;;;;;;;26.42;65.33;101147.63;4945029;28;122476;-80
2022/08/26 07:12:52;;;;;;;26.20;18.48;;;;;;;26.53;65.73;101152.97;4936117;28;123049;-80
2022/08/26 07:15:18;;;;;;;27.55;18.55;;;;;;;26.54;64.88;101140.41;4919791;28;125531;-80
2022/08/26 07:17:43;;;;;;;25.10;18.30;;;;;;;26.65;65.00;101149.84;4927789;28;122651;-80
2022/08/26 07:20:10;;;;;;;30.65;18.38;;;;;;;26.67;65.08;101148.00;4928231;28;122923;-80
2022/08/26 07:22:46;;;;;;;29.50;18.10;;;;;;;26.77;64.79;101154.63;4924571;28;124473;-80
2022/08/26 07:25:12;;;;;;;26.42;18.25;;;;;;;26.77;64.83;101143.38;4948078;28;122743;-80
2022/08/26 07:27:38;;;;;;;26.75;17.90;;;;;;;26.85;64.33;101146.97;4941614;28;123005;-80
2022/08/26 07:30:05;;;;;;;27.67;17.90;;;;;;;26.90;63.96;101156.56;4945377;28;122541;-80
2022/08/26 07:32:31;;;;;;;25.33;17.20;;;;;;;26.90;64.03;101146.06;4940118;28;122569;-80
2022/08/26 07:34:57;;;;;;;27.92;17.02;;;;;;;27.07;64.05;101158.94;4925071;28;125993;-80
2022/08/26 07:37:23;;;;;;;24.27;17.15;;;;;;;27.17;64.58;101155.06;4941173;28;122180;-80
2022/08/26 07:39:50;;;;;;;28.08;16.67;;;;;;;27.25;63.41;101157.91;4944453;28;123241;-80
2022/08/26 07:42:18;;;;;;;27.20;15.85;;;;;;;27.35;63.35;101150.44;4927264;28;124497;-80
2022/08/26 07:44:44;;;;;;;28.63;16.47;;;;;;;27.36;62.64;101151.19;4947918;28;122640;-80
2022/08/26 07:47:10;;;;;;;26.33;17.17;;;;;;;27.36;62.00;101165.28;4941750;28;124062;-80
2022/08/26 07:49:36;;;;;;;25.58;16.70;;;;;;;27.29;62.24;101160.38;4945949;28;122483;-80
2022/08/26 07:52:03;;;;;;;23.77;15.70;;;;;;;27.24;62.74;101166.94;4945344;28;122539;-80
2022/08/26 07:54:29;;;;;;;27.70;16.48;;;;;;;27.29;63.69;101174.44;4944923;28;122660;-81
2022/08/26 07:57:13;;;;;;;26.30;15.98;;;;;;;27.39;63.79;101166.97;4941539;28;122587;-80
2022/08/26 07:59:38;;;;;;;23.52;15.80;;;;;;;27.51;63.44;101157.66;4946402;28;122526;-80
2022/08/26 08:02:04;;;;;;;23.13;14.80;;;;;;;27.70;63.01;101162.25;4927584;28;125151;-80
2022/08/26 08:04:29;;;;;;;24.67;15.88;;;;;;;27.82;62.99;101152.84;4925992;28;122255;-80
2022/08/26 08:06:55;;;;;;;22.98;16.55;;;;;;;28.05;60.83;101155.72;4915914;28;125123;-80
2022/08/26 08:09:21;;;;;;;24.53;16.47;;;;;;;28.19;61.29;101161.19;4944187;28;122898;-80
2022/08/26 08:11:48;;;;;;;26.03;16.43;;;;;;;28.27;60.79;101162.72;4921356;28;125537;-80
2022/08/26 08:14:14;;;;;;;24.93;16.50;;;;;;;28.37;60.16;101154.41;4922246;28;123987;-80
2022/08/26 08:16:40;;;;;;;25.73;16.33;;;;;;;28.49;59.60;101161.19;4908503;28;122366;-80
2022/08/26 08:19:05;;;;;;;21.65;15.32;;;;;;;28.56;59.94;101160.44;4941747;28;124559;-80
2022/08/26 08:21:31;;;;;;;24.98;15.25;;;;;;;28.65;60.02;101157.03;4924533;28;125212;-80
2022/08/26 08:23:57;;;;;;;24.77;15.30;;;;;;;28.78;60.35;101152.50;4925901;28;122615;-80
2022/08/26 08:26:25;;;;;;;21.90;14.23;;;;;;;28.85;59.92;101146.06;4940933;28;122655;-80
2022/08/26 08:28:54;;;;;;;22.07;14.63;;;;;;;29.05;59.26;101159.22;4942312;28;123559;-80
2022/08/26 08:31:25;;;;;;;22.02;13.73;;;;;;;29.10;58.60;101154.69;4941243;28;122589;-80
2022/08/26 08:33:51;;;;;;;20.75;14.90;;;;;;;29.16;58.29;101158.81;4923818;28;125839;-80
2022/08/26 08:36:17;;;;;;;23.20;13.75;;;;;;;29.22;58.73;101156.53;4940407;28;122552;-80
2022/08/26 08:38:43;;;;;;;19.60;12.88;;;;;;;29.25;58.78;101148.97;4925667;28;125793;-80
2022/08/26 08:41:21;;;;;;;21.90;13.27;;;;;;;29.30;57.23;101150.84;4908611;28;125250;-80
2022/08/26 08:43:54;;;;;;;21.98;13.23;;;;;;;29.39;57.51;101163.63;4940568;28;122185;-80
2022/08/26 08:46:20;;;;;;;19.60;12.73;;;;;;;29.33;58.13;101156.09;4941425;28;124841;-80
2022/08/26 08:48:55;;;;;;;20.92;12.95;;;;;;;29.37;57.67;101143.66;4930211;28;125908;-80
2022/08/26 08:51:33;;;;;;;21.70;12.60;;;;;;;29.41;57.82;101156.06;4907384;28;122368;-79
2022/08/26 08:54:00;;;;;;;25.63;13.20;;;;;;;29.40;58.16;101157.41;4919009;28;124827;-80
2022/08/26 08:56:32;;;;;;;18.75;12.48;;;;;;;29.44;58.40;101152.09;4920828;28;122186;-80
2022/08/26 08:59:16;;;;;;;24.10;12.95;;;;;;;29.51;58.58;101153.41;4921052;28;123302;-80
2022/08/26 09:01:58;;;;;;;20.47;12.27;;;;;;;29.60;57.67;101162.03;4948065;28;122395;-80
2022/08/26 09:04:49;;;;;;;22.73;13.27;;;;;;;29.65;56.97;101160.31;4940928;28;122831;-80
2022/08/26 09:07:19;;;;;;;22.25;12.77;;;;;;;29.71;56.97;101158.00;4940571;28;122901;-80
2022/08/26 09:09:51;;;;;;;21.30;13.00;;;;;;;29.69;56.40;101152.19;4904862;28;125427;-79
2022/08/26 09:12:32;;;;;;;21.42;12.77;;;;;;;29.74;58.23;101159.69;4939821;28;124038;-80
2022/08/26 09:15:30;;;;;;;21.33;12.87;;;;;;;29.83;58.00;101150.59;4931290;28;123078;-80
2022/08/26 09:18:09;;;;;;;19.67;11.80;;;;;;;29.96;56.91;101158.03;4910372;28;122482;-80
2022/08/26 09:20:50;;;;;;;19.77;12.57;;;;;;;30.01;56.34;101159.88;4942150;28;123163;-80
2022/08/26 09:23:44;;;;;;;23.00;13.07;;;;;;;29.99;56.08;101145.56;4933020;28;123500;-80
2022/08/26 09:26:24;;;;;;;22.10;12.93;;;;;;;30.03;55.99;101156.47;4936888;28;122998;-80
2022/08/26 09:28:58;;;;;;;21.85;12.45;;;;;;;30.06;56.18;101152.53;4941188;28;123764;-80
2022/08/26 09:31:35;;;;;;;18.83;12.85;;;;;;;30.08;56.36;101152.72;4940809;28;122867;-80
2022/08/26 09:34:20;;;;;;;18.58;12.55;;;;;;;30.09;55.33;101151.38;4920492;28;122482;-80
2022/08/26 09:36:49;;;;;;;21.92;12.80;;;;;;;30.10;55.73;101147.97;4943433;28;122904;-79
2022/08/26 09:39:26;;;;;;;20.17;12.52;;;;;;;30.14;56.03;101150.38;4942780;28;123656;-79
2022/08/26 09:42:19;;;;;;;21.40;12.80;;;;;;;30.18;56.15;101150.72;4941265;28;122512;-80
2022/08/26 09:45:02;;;;;;;25.20;13.60;;;;;;;30.20;55.86;101154.47;4934910;28;123817;-80
2022/08/26 09:47:54;;;;;;;23.02;13.52;;;;;;;30.21;56.13;101149.56;4876656;28;123546;-80
2022/08/26 09:50:30;;;;;;;22.02;12.65;;;;;;;30.23;55.73;101147.66;4860442;28;123070;-80
2022/08/26 09:53:13;;;;;;;21.17;12.57;;;;;;;30.24;55.68;101148.41;4863259;28;124070;-80
2022/08/26 09:55:42;;;;;;;24.63;12.57;;;;;;;30.20;55.72;101136.75;4879357;28;122570;-79
2022/08/26 09:58:14;;;;;;;25.50;12.93;;;;;;;30.24;54.61;101137.84;4874612;28;124815;-80
2022/08/26 10:00:54;;;;;;;23.35;12.73;;;;;;;30.22;55.20;101125.59;4863916;28;123833;-80
2022/08/26 10:03:28;;;;;;;23.03;12.43;;;;;;;30.17;54.93;101135.84;4829683;28;124369;-80
2022/08/26 10:06:06;;;;;;;20.73;11.33;;;;;;;30.10;55.68;101130.25;4861490;28;124010;-80
2022/08/26 10:08:38;;;;;;;19.38;11.32;;;;;;;30.04;55.75;101129.72;4861362;28;122568;-80
2022/08/26 10:11:12;;;;;;;17.90;11.07;;;;;;;29.97;55.58;101125.59;4830211;28;125810;-79
2022/08/26 10:13:42;;;;;;;17.75;10.80;;;;;;;29.96;55.28;101129.75;4845090;28;124246;-80
2022/08/26 10:16:16;;;;;;;21.70;11.82;;;;;;;29.98;56.25;101134.81;4862130;28;122864;-80
2022/08/26 10:18:50;;;;;;;20.00;11.70;;;;;;;29.97;55.69;101136.16;4885779;28;124924;-80
2022/08/26 10:21:55;;;;;;;21.50;12.43;;;;;;;29.95;55.46;101129.00;4949373;28;124951;-80
2022/08/26 10:24:29;;;;;;;18.50;11.70;;;;;;;29.91;56.27;101116.59;4923623;28;123172;-80
2022/08/26 10:27:06;;;;;;;17.33;11.82;;;;;;;29.92;56.13;101123.75;4918254;28;122589;-80
2022/08/26 10:29:38;;;;;;;20.20;12.60;;;;;;;29.93;55.94;101122.44;4919315;28;122828;-79
2022/08/26 10:32:11;;;;;;;20.67;12.50;;;;;;;30.01;56.24;101128.00;4940812;28;123012;-80
2022/08/26 10:34:38;;;;;;;21.23;12.38;;;;;;;30.03;55.93;101131.78;4939721;28;123430;-79
2022/08/26 10:37:12;;;;;;;19.67;12.43;;;;;;;30.08;54.93;101128.00;4938526;28;125605;-80
2022/08/26 10:39:44;;;;;;;21.97;12.10;;;;;;;30.07;54.84;101129.34;4921992;28;123294;-80
2022/08/26 10:42:18;;;;;;;17.00;11.40;;;;;;;30.13;55.49;101132.66;4937656;28;123987;-80
2022/08/26 10:45:01;;;;;;;18.48;11.57;;;;;;;30.22;55.57;101134.84;4938403;28;124188;-80
2022/08/26 10:47:44;;;;;;;21.67;12.35;;;;;;;30.25;54.90;101135.75;4943634;28;122702;-80
2022/08/26 10:50:10;;;;;;;17.77;11.38;;;;;;;30.25;55.04;101132.94;4941094;28;122741;-80
2022/08/26 10:52:59;;;;;;;19.10;11.57;;;;;;;30.34;54.45;101135.13;4923645;28;122953;-80
2022/08/26 10:55:28;;;;;;;20.27;13.07;;;;;;;30.35;54.91;101130.97;4934787;28;123816;-80
2022/08/26 10:58:03;;;;;;;20.23;12.48;;;;;;;30.33;54.71;101132.88;4935897;28;122193;-80
2022/08/26 11:03:48;;;;;;;19.60;12.18;;;;;;;30.30;53.91;101122.72;4935821;28;123106;-80
2022/08/26 11:06:17;;;;;;;18.63;11.50;;;;;;;30.28;54.43;101128.94;4938209;28;122150;-80
2022/08/26 11:08:51;;;;;;;19.65;12.45;;;;;;;30.26;53.63;101125.94;4921283;28;125947;-80
2022/08/26 11:11:39;;;;;;;20.38;12.13;;;;;;;30.24;54.58;101126.53;4941142;28;122929;-80
2022/08/26 11:14:20;;;;;;;19.95;11.98;;;;;;;30.25;54.01;101115.94;4958665;28;122135;-80
2022/08/26 11:16:47;;;;;;;22.05;12.98;;;;;;;30.24;54.40;101115.22;4940735;28;122675;-80
2022/08/26 11:19:54;;;;;;;14.60;10.70;;;;;;;30.24;54.05;101117.28;4942239;28;123130;-80